Bangkok Bridge — 3FTZ8 — position and weather

sailwx.info

Track history (hours):
 
Tides and Currents Weather Stations Pressure Air Temp Water Temp Dewpoint Dewpoint Depression Visibility Wind Speed Wind Dir Waves Ship Positions

Bangkok Bridge

Last reported at 2017-Jan-17 06:27 UTC. Time now 2017-Jan-19 19:11 UTC.
Position N 34°09' E 134°57'.

Length 267 m; draft 10.2 m.

Type: Ship (hazmat cat A). MMSI: 353368000.

Date/timePositionNaut miles runAvg speedWind from/ knotsBaromVisibWave heightAir tempDewpointWater temp
2017-Jan-17 06:27N 34°09' E 134°57'1516.1
2017-Jan-17 05:32N 34°23' E 135°02'1818.9
2017-Jan-17 04:33N 34°35' E 135°19'7 6.9
2017-Jan-17 03:34N 34°39' E 135°26'0 0.0
2017-Jan-17 02:30N 34°39' E 135°26'0 0.0
2017-Jan-17 01:30N 34°39' E 135°26'0 0.0
2017-Jan-17 00:30N 34°39' E 135°26'0 0.0
2017-Jan-16 23:24N 34°39' E 135°26'0 0.0
2017-Jan-16 22:33N 34°39' E 135°26'6 5.6
2017-Jan-16 21:34N 34°36' E 135°20'1616.2
2017-Jan-16 20:34N 34°24' E 135°06'1615.6
2017-Jan-16 19:33N 34°10' E 134°60'1312.8
2017-Jan-16 18:33N 33°57' E 134°60'240 7.4
2017-Jan-15 10:21N 34°59' E 139°40'1012.7
2017-Jan-15 09:34N 35°09' E 139°44'1111.4
2017-Jan-15 08:33N 35°20' E 139°43'8 7.6
2017-Jan-15 07:33N 35°28' E 139°42'0 0.0
2017-Jan-15 06:33N 35°28' E 139°42'0 0.0
2017-Jan-15 05:33N 35°28' E 139°42'0 0.0
2017-Jan-15 04:33N 35°28' E 139°42'0 0.0
2017-Jan-15 03:33N 35°28' E 139°42'0 0.0
2017-Jan-15 02:33N 35°28' E 139°42'0 0.0
2017-Jan-15 01:33N 35°28' E 139°42'0 0.0
2017-Jan-15 00:33N 35°28' E 139°42'0 0.0
2017-Jan-14 23:33N 35°28' E 139°42'0 0.0
2017-Jan-14 22:33N 35°28' E 139°42'1 1.3
2017-Jan-14 21:33N 35°27' E 139°43'9 9.5
2017-Jan-14 20:33N 35°18' E 139°45'1010.2
2017-Jan-14 19:33N 35°07' E 139°46'1110.5
2017-Jan-14 18:32N 34°60' E 139°37'  
Track history (hours):
 
Tides and Currents Weather Stations Pressure Air Temp Water Temp Dewpoint Dewpoint Depression Visibility Wind Speed Wind Dir Waves Ship Positions

Bangkok Bridge

Last reported at 2017-Jan-17 06:27 UTC. Time now 2017-Jan-19 19:11 UTC.
Position N 34°09' E 134°57'.

Length 267 m; draft 10.2 m.

Type: Ship (hazmat cat A). MMSI: 353368000.

Date/timePositionNaut miles runAvg speedWind from/ knotsBaromVisibWave heightAir tempDewpointWater temp
2017-Jan-17 06:27N 34°09' E 134°57'1516.1
2017-Jan-17 05:32N 34°23' E 135°02'1818.9
2017-Jan-17 04:33N 34°35' E 135°19'7 6.9
2017-Jan-17 03:34N 34°39' E 135°26'0 0.0
2017-Jan-17 02:30N 34°39' E 135°26'0 0.0
2017-Jan-17 01:30N 34°39' E 135°26'0 0.0
2017-Jan-17 00:30N 34°39' E 135°26'0 0.0
2017-Jan-16 23:24N 34°39' E 135°26'0 0.0
2017-Jan-16 22:33N 34°39' E 135°26'6 5.6
2017-Jan-16 21:34N 34°36' E 135°20'1616.2
2017-Jan-16 20:34N 34°24' E 135°06'1615.6
2017-Jan-16 19:33N 34°10' E 134°60'1312.8
2017-Jan-16 18:33N 33°57' E 134°60'240 7.4
2017-Jan-15 10:21N 34°59' E 139°40'1012.7
2017-Jan-15 09:34N 35°09' E 139°44'1111.4
2017-Jan-15 08:33N 35°20' E 139°43'8 7.6
2017-Jan-15 07:33N 35°28' E 139°42'0 0.0
2017-Jan-15 06:33N 35°28' E 139°42'0 0.0
2017-Jan-15 05:33N 35°28' E 139°42'0 0.0
2017-Jan-15 04:33N 35°28' E 139°42'0 0.0
2017-Jan-15 03:33N 35°28' E 139°42'0 0.0
2017-Jan-15 02:33N 35°28' E 139°42'0 0.0
2017-Jan-15 01:33N 35°28' E 139°42'0 0.0
2017-Jan-15 00:33N 35°28' E 139°42'0 0.0
2017-Jan-14 23:33N 35°28' E 139°42'0 0.0
2017-Jan-14 22:33N 35°28' E 139°42'1 1.3
2017-Jan-14 21:33N 35°27' E 139°43'9 9.5
2017-Jan-14 20:33N 35°18' E 139°45'1010.2
2017-Jan-14 19:33N 35°07' E 139°46'1110.5
2017-Jan-14 18:32N 34°60' E 139°37'  

Dump ship's entire track history